Glasgow, MT

11:54 AM MDT on August 21, 2014 (GMT -0600)
nashua | Change Station
CLOSE
Current Station
Personal Weather Station
Location: Nashua, MT
Elevation: 2156 ft
Nearby Weather Stations

Elev 2156 ft 48.11 °N, 106.45 °W | Updated 54 minutes ago

Overcast
Overcast
68.2 °F
Feels Like 68.2 °F
N
7.3
Wind Variable Wind from NNE
Gusts 10.9 mph

Today
High -- | Low -- °F
--% Chance of Precip.
Yesterday
High -- | Low -- °F
Precip. -- in
6:08 AM 8:08 PM
Waning Crescent, 13% visible
Pressure 29.96 in
Visibility 10.0 miles
Clouds Scattered Clouds 1800 ft
Mostly Cloudy 2300 ft
Overcast 4700 ft
Dew Point 49 °F
Humidity 51%
Rainfall 0.12 in
Snow Depth Not available.
UV 2 out of 12
Pollen 5.70 out of 12
Air Quality Not available.
Flu Activity Not available.
METAR KGGW 211653Z AUTO 02008KT 10SM SCT018 BKN023 OVC047 20/15 A2998 RMK AO2 SLP144 T02000150

More Conditions Fewer Conditions

Pressure 29.96 in
Visibility 10.0 miles
Clouds Scattered Clouds 1800 ft
Mostly Cloudy 2300 ft
Overcast 4700 ft
Dew Point 49 °F
Humidity 51%
Rainfall 0.12 in
Snow Depth Not available.
UV 2 out of 12
Pollen 5.70 out of 12
Air Quality Not available.
Flu Activity Not available.
METAR KGGW 211653Z AUTO 02008KT 10SM SCT018 BKN023 OVC047 20/15 A2998 RMK AO2 SLP144 T02000150

More Conditions Fewer Conditions

10-Day Weather Forecast

Almanac

Astronomy

Aug. 21, 2014 Rise Set
Actual Time 6:08 AM MDT 8:08 PM MDT
Civil Twilight 5:35 AM MDT 8:41 PM MDT
Nautical Twilight 4:53 AM MDT 9:23 PM MDT
Astronomical Twilight 4:07 AM MDT 10:09 PM MDT
Moon 2:33 AM MDT 5:45 PM MDT
Length of Visible Light 15h 06m
Length of Day
13h 59m
Tomorrow will be 3m 15s shorter.
Waning Crescent, 13% of the Moon is Illuminated
Today
Waning Crescent
Aug 25
New
Sep 2
First Quarter
Sep 8
Full
Sep 15
Last Quarter

Today's Extremes

State Highs State Lows

Community

WunderPhotos

Upload Photos

1,745,987 photos uploaded!

Nearby

Snow Depth

Station Depth Elevation
Crystal Lake 0 in 6050 ft
Spur Park 0 in 8100 ft
Deadman Creek 0 in 6450 ft
Onion Park 0 in 7410 ft
Stringer Creek 0 in 6550 ft

Earthquake Activity

City Distance Mag. Time & Date
No recent earthquake activity has been reported nearby.
Minimum magnitude displayed is 2.5.

Coastal Water Temperatures

Place Temperature
No Stations Reporting

Nearby Weather Stations